createdAt,value
2023-03-17T00:00:45.870Z,4.15
2023-03-17T00:03:27.069Z,2.30
2023-03-17T00:05:58.265Z,1.70
2023-03-17T00:08:31.658Z,2.55
2023-03-17T00:10:58.616Z,9.32
2023-03-17T00:13:26.473Z,3.15
2023-03-17T00:15:58.914Z,1.77
2023-03-17T00:18:26.096Z,1.52
2023-03-17T00:20:53.503Z,1.45
2023-03-17T00:23:24.680Z,0.88
2023-03-17T00:25:53.487Z,1.75
2023-03-17T00:28:28.054Z,1.95
2023-03-17T00:30:58.505Z,2.05
2023-03-17T00:33:28.521Z,1.85
2023-03-17T00:35:57.178Z,1.38
2023-03-17T00:38:24.464Z,2.83
2023-03-17T00:40:51.971Z,1.23
2023-03-17T00:43:18.836Z,4.75
2023-03-17T00:45:46.868Z,1.90
2023-03-17T00:48:16.974Z,1.70
2023-03-17T00:50:45.110Z,1.98
2023-03-17T00:53:21.471Z,1.30
2023-03-17T00:55:49.290Z,1.70
2023-03-17T00:58:27.208Z,5.30
2023-03-17T01:00:55.165Z,3.50
2023-03-17T01:03:23.235Z,5.10
2023-03-17T01:05:52.132Z,2.10
2023-03-17T01:08:21.549Z,2.03
2023-03-17T01:10:48.407Z,4.90
2023-03-17T01:13:15.558Z,2.58
2023-03-17T01:15:47.014Z,4.15
2023-03-17T01:18:16.108Z,1.55
2023-03-17T01:20:43.941Z,1.15
2023-03-17T01:23:12.229Z,5.70
2023-03-17T01:25:41.435Z,1.98
2023-03-17T01:28:19.956Z,2.88
2023-03-17T01:30:47.057Z,2.38
2023-03-17T01:33:15.638Z,1.70
2023-03-17T01:35:43.885Z,2.22
2023-03-17T01:38:11.528Z,2.30
2023-03-17T01:40:44.230Z,3.38
2023-03-17T01:43:11.000Z,2.13
2023-03-17T01:46:16.079Z,1.27
2023-03-17T01:49:07.968Z,1.27
2023-03-17T01:52:14.256Z,3.58
2023-03-17T01:54:56.882Z,1.52
2023-03-17T01:57:41.165Z,1.27
2023-03-17T02:00:16.232Z,2.05
2023-03-17T02:02:47.838Z,2.22
2023-03-17T02:05:18.788Z,1.52
2023-03-17T02:07:46.239Z,2.28
2023-03-17T02:10:17.571Z,3.60
2023-03-17T02:12:46.918Z,1.52
2023-03-17T02:15:13.703Z,1.88
2023-03-17T02:17:40.787Z,2.00
2023-03-17T02:20:17.116Z,2.88
2023-03-17T02:22:49.494Z,2.38
2023-03-17T02:25:20.425Z,5.28
2023-03-17T02:27:51.963Z,1.73
2023-03-17T02:30:21.465Z,3.33
2023-03-17T02:32:49.642Z,1.77
2023-03-17T02:35:19.048Z,2.30
2023-03-17T02:37:46.666Z,1.25
2023-03-17T02:40:15.009Z,5.10
2023-03-17T02:42:42.202Z,3.15
2023-03-17T02:45:11.596Z,3.47
2023-03-17T02:47:38.637Z,1.77
2023-03-17T02:50:06.406Z,1.50
2023-03-17T02:52:33.617Z,1.90
2023-03-17T02:55:00.589Z,1.48
2023-03-17T02:57:27.523Z,1.27
2023-03-17T02:59:54.598Z,1.95
2023-03-17T03:02:21.805Z,1.88
2023-03-17T03:04:48.705Z,1.13
2023-03-17T03:07:16.237Z,2.08
2023-03-17T03:09:43.290Z,3.80
2023-03-17T03:12:11.142Z,2.38
2023-03-17T03:14:38.122Z,1.30
2023-03-17T03:17:05.393Z,4.88
2023-03-17T03:19:32.303Z,3.00
2023-03-17T03:21:59.254Z,4.32
2023-03-17T03:24:26.377Z,3.13
2023-03-17T03:26:53.353Z,2.72
2023-03-17T03:29:20.611Z,2.25
2023-03-17T03:31:48.682Z,2.88
2023-03-17T03:34:16.445Z,3.05
2023-03-17T03:36:43.462Z,3.42
2023-03-17T03:39:12.478Z,2.25
2023-03-17T03:41:41.233Z,1.67
2023-03-17T03:44:08.235Z,1.30
2023-03-17T03:46:35.303Z,7.78
2023-03-17T03:49:02.544Z,3.05
2023-03-17T03:51:29.600Z,2.25
2023-03-17T03:53:56.596Z,2.88
2023-03-17T03:56:24.568Z,2.55
2023-03-17T03:58:51.518Z,1.92
2023-03-17T04:01:18.646Z,2.05
2023-03-17T04:03:47.367Z,5.72
2023-03-17T04:06:14.615Z,2.22
2023-03-17T04:08:41.390Z,2.33
2023-03-17T04:11:08.772Z,4.63
2023-03-17T04:13:36.096Z,6.68
2023-03-17T04:16:03.317Z,2.13
2023-03-17T04:18:31.617Z,4.03
2023-03-17T04:20:58.757Z,2.17
2023-03-17T04:23:25.872Z,5.55
2023-03-17T04:25:53.435Z,4.38
2023-03-17T04:28:20.832Z,2.05
2023-03-17T04:30:47.562Z,1.85
2023-03-17T04:33:14.432Z,3.70
2023-03-17T04:35:41.470Z,4.13
2023-03-17T04:38:12.880Z,2.50
2023-03-17T04:40:40.126Z,2.65
2023-03-17T04:43:07.211Z,3.85
2023-03-17T04:45:34.091Z,2.08
2023-03-17T04:48:01.956Z,3.60
2023-03-17T04:50:29.565Z,2.97
2023-03-17T04:52:56.551Z,4.07
2023-03-17T04:55:23.569Z,4.07
2023-03-17T04:57:51.378Z,3.80
2023-03-17T05:00:18.499Z,2.20
2023-03-17T05:02:45.576Z,2.15
2023-03-17T05:05:12.950Z,1.75
2023-03-17T05:07:40.386Z,2.33
2023-03-17T05:10:08.151Z,3.17
2023-03-17T05:12:35.254Z,1.65
2023-03-17T05:15:02.579Z,1.50
2023-03-17T05:17:29.354Z,2.53
2023-03-17T05:19:56.415Z,1.98
2023-03-17T05:22:23.512Z,19.73
2023-03-17T05:24:50.622Z,8.15
2023-03-17T05:27:23.364Z,2.30
2023-03-17T05:29:50.376Z,7.03
2023-03-17T05:32:18.339Z,9.88
2023-03-17T05:34:45.360Z,5.22
2023-03-17T05:37:12.955Z,15.30
2023-03-17T05:39:40.235Z,26.17
2023-03-17T05:42:08.473Z,3.55
2023-03-17T05:44:35.811Z,7.97
2023-03-17T05:47:02.926Z,5.82
2023-03-17T05:49:30.097Z,4.07
2023-03-17T05:51:57.352Z,2.33
2023-03-17T05:54:24.391Z,2.13
2023-03-17T05:56:51.489Z,4.50
2023-03-17T05:59:18.866Z,5.57
2023-03-17T06:01:46.121Z,3.13
2023-03-17T06:04:13.409Z,4.95
2023-03-17T06:06:40.436Z,2.85
2023-03-17T06:09:07.286Z,3.20
2023-03-17T06:11:34.440Z,2.92
2023-03-17T06:14:01.747Z,4.68
2023-03-17T06:16:30.802Z,3.45
2023-03-17T06:18:57.918Z,3.13
2023-03-17T06:21:25.668Z,6.75
2023-03-17T06:23:52.827Z,2.50
2023-03-17T06:26:20.008Z,2.15
2023-03-17T06:28:46.906Z,3.22
2023-03-17T06:31:13.647Z,5.53
2023-03-17T06:33:42.263Z,3.67
2023-03-17T06:36:09.518Z,3.50
2023-03-17T06:38:36.656Z,2.47
2023-03-17T06:41:04.704Z,5.22
2023-03-17T06:43:32.628Z,4.78
2023-03-17T06:46:11.664Z,5.75
2023-03-17T06:48:38.492Z,8.20
2023-03-17T06:51:05.636Z,2.55
2023-03-17T06:53:32.495Z,2.97
2023-03-17T06:55:59.640Z,6.50
2023-03-17T06:58:26.743Z,3.67
2023-03-17T07:00:54.164Z,6.75
2023-03-17T07:03:24.217Z,5.28
2023-03-17T07:05:52.149Z,9.43
2023-03-17T07:08:19.593Z,3.05
2023-03-17T07:10:46.598Z,4.93
2023-03-17T07:13:13.694Z,9.90
2023-03-17T07:15:40.994Z,9.20
2023-03-17T07:18:08.358Z,8.90
2023-03-17T07:20:35.866Z,10.10
2023-03-17T07:23:02.744Z,4.97
2023-03-17T07:25:29.954Z,7.43
2023-03-17T07:27:57.242Z,3.22
2023-03-17T07:30:24.010Z,7.88
2023-03-17T07:32:50.952Z,4.75
2023-03-17T07:35:17.929Z,12.77
2023-03-17T07:37:46.270Z,6.72
2023-03-17T07:40:13.383Z,4.10
2023-03-17T07:42:40.281Z,7.95
2023-03-17T07:45:08.013Z,3.60
2023-03-17T07:47:35.268Z,9.63
2023-03-17T07:50:02.280Z,5.90
2023-03-17T07:52:29.359Z,5.82
2023-03-17T07:54:58.265Z,3.65
2023-03-17T07:57:25.529Z,7.70
2023-03-17T07:59:52.517Z,4.78
2023-03-17T08:02:19.769Z,8.60
2023-03-17T08:04:46.962Z,2.75
2023-03-17T08:07:15.535Z,3.05
2023-03-17T08:09:42.866Z,3.20
2023-03-17T08:12:10.089Z,5.53
2023-03-17T08:14:37.193Z,5.68
2023-03-17T08:17:04.994Z,6.75
2023-03-17T08:19:32.232Z,9.85
2023-03-17T08:21:59.400Z,3.90
2023-03-17T08:24:27.024Z,4.75
2023-03-17T08:26:54.212Z,6.07
2023-03-17T08:29:21.301Z,2.70
2023-03-17T08:31:48.282Z,8.10
2023-03-17T08:34:16.250Z,9.82
2023-03-17T08:36:43.289Z,3.38
2023-03-17T08:39:10.477Z,17.40
2023-03-17T08:41:38.447Z,3.22
2023-03-17T08:44:05.936Z,11.43
2023-03-17T08:46:33.386Z,4.18
2023-03-17T08:49:01.220Z,3.67
2023-03-17T08:51:31.651Z,5.22
2023-03-17T08:53:59.660Z,4.85
2023-03-17T08:56:27.054Z,4.63
2023-03-17T08:58:54.482Z,6.32
2023-03-17T09:01:23.115Z,4.07
2023-03-17T09:03:54.828Z,4.93
2023-03-17T09:06:22.529Z,11.25
2023-03-17T09:08:55.108Z,3.40
2023-03-17T09:11:26.067Z,27.45
2023-03-17T09:13:53.117Z,3.38
2023-03-17T09:16:20.597Z,5.45
2023-03-17T09:18:47.566Z,6.75
2023-03-17T09:21:15.402Z,13.48
2023-03-17T09:23:42.694Z,7.72
2023-03-17T09:26:10.225Z,11.52
2023-03-17T09:28:37.389Z,8.35
2023-03-17T09:31:06.292Z,10.38
2023-03-17T09:33:33.690Z,5.63
2023-03-17T09:36:00.902Z,6.57
2023-03-17T09:38:28.209Z,5.53
2023-03-17T09:41:02.280Z,5.65
2023-03-17T09:43:35.198Z,3.28
2023-03-17T09:46:27.189Z,6.78
2023-03-17T09:49:20.632Z,5.32
2023-03-17T09:51:49.432Z,6.70
2023-03-17T09:54:31.287Z,5.32
2023-03-17T09:57:12.572Z,8.10
2023-03-17T10:00:08.026Z,4.72
2023-03-17T10:02:37.830Z,3.80
2023-03-17T10:05:19.490Z,4.22
2023-03-17T10:07:49.544Z,6.68
2023-03-17T10:10:36.645Z,3.80
2023-03-17T10:13:28.523Z,4.50
2023-03-17T10:16:11.165Z,16.27
2023-03-17T10:18:49.355Z,8.00
2023-03-17T10:21:22.492Z,9.35
2023-03-17T10:23:49.452Z,5.13
2023-03-17T10:26:24.829Z,5.30
2023-03-17T10:28:52.881Z,5.82
2023-03-17T10:31:30.682Z,5.22
2023-03-17T10:34:05.382Z,5.93
2023-03-17T10:36:38.262Z,8.35
2023-03-17T10:39:07.548Z,8.23
2023-03-17T10:41:48.563Z,5.45
2023-03-17T10:44:28.162Z,5.10
2023-03-17T10:49:24.581Z,5.70
2023-03-17T10:51:53.873Z,5.85
2023-03-17T10:54:23.755Z,4.80
2023-03-17T10:57:07.130Z,5.07
2023-03-17T10:59:44.475Z,8.18
2023-03-17T11:02:23.883Z,5.22
2023-03-17T11:04:55.232Z,4.57
2023-03-17T11:07:38.687Z,6.53
2023-03-17T11:10:17.953Z,5.03
2023-03-17T11:12:50.355Z,12.02
2023-03-17T11:15:20.206Z,7.30
2023-03-17T11:17:59.862Z,3.05
2023-03-17T11:21:07.157Z,4.97
2023-03-17T11:23:51.857Z,5.65
2023-03-17T11:27:03.797Z,9.25
2023-03-17T11:30:02.468Z,3.38
2023-03-17T11:32:33.937Z,3.80
2023-03-17T11:35:26.263Z,2.75
2023-03-17T11:38:29.295Z,3.72
2023-03-17T11:41:05.262Z,3.72
2023-03-17T11:44:18.665Z,6.00
2023-03-17T11:46:59.790Z,3.33
2023-03-17T11:49:37.627Z,7.10
2023-03-17T11:52:19.701Z,9.68
2023-03-17T11:55:15.110Z,3.55
2023-03-17T11:57:59.922Z,3.70
2023-03-17T12:00:52.582Z,3.05
2023-03-17T12:04:05.675Z,3.88
2023-03-17T12:06:37.225Z,5.45
2023-03-17T12:09:29.591Z,2.88
2023-03-17T12:11:58.439Z,4.75
2023-03-17T12:14:56.700Z,9.70
2023-03-17T12:17:49.048Z,4.13
2023-03-17T12:20:59.802Z,5.70
2023-03-17T12:23:45.295Z,3.03
2023-03-17T12:26:21.173Z,7.35
2023-03-17T12:29:13.713Z,5.65
2023-03-17T12:31:52.146Z,7.05
2023-03-17T12:34:58.741Z,4.10
2023-03-17T12:37:30.201Z,3.58
2023-03-17T12:40:08.650Z,4.00
2023-03-17T12:43:04.556Z,4.22
2023-03-17T12:45:32.464Z,8.82
2023-03-17T12:48:18.366Z,6.32
2023-03-17T12:51:09.377Z,7.57
2023-03-17T12:53:41.166Z,5.38
2023-03-17T12:56:32.862Z,7.20
2023-03-17T12:59:08.936Z,4.75
2023-03-17T13:01:54.708Z,3.45
2023-03-17T13:04:28.068Z,7.47
2023-03-17T13:06:58.665Z,5.60
2023-03-17T13:09:31.998Z,4.63
2023-03-17T13:12:03.576Z,5.65
2023-03-17T13:14:41.849Z,5.13
2023-03-17T13:17:19.655Z,5.63
2023-03-17T13:20:08.405Z,2.72
2023-03-17T13:22:55.647Z,4.32
2023-03-17T13:25:45.483Z,6.05
2023-03-17T13:28:12.345Z,4.25
2023-03-17T13:30:39.120Z,9.13
2023-03-17T13:33:12.980Z,4.40
2023-03-17T13:35:50.872Z,5.53
2023-03-17T13:38:27.297Z,6.90
2023-03-17T13:41:18.608Z,4.75
2023-03-17T13:44:12.944Z,4.85
2023-03-17T13:46:44.344Z,6.30
2023-03-17T13:49:24.127Z,3.78
2023-03-17T13:52:12.409Z,5.15
2023-03-17T13:55:02.837Z,11.45
2023-03-17T13:57:37.207Z,4.43
2023-03-17T14:00:22.687Z,5.22
2023-03-17T14:02:53.094Z,8.93
2023-03-17T14:05:29.053Z,5.43
2023-03-17T14:08:15.839Z,9.75
2023-03-17T14:10:44.527Z,7.20
2023-03-17T14:13:20.569Z,6.83
2023-03-17T14:15:56.474Z,5.18
2023-03-17T14:18:32.271Z,5.20
2023-03-17T14:21:01.464Z,5.63
2023-03-17T14:23:29.918Z,7.00
2023-03-17T14:25:59.958Z,8.10
2023-03-17T14:28:34.581Z,6.97
2023-03-17T14:31:04.533Z,12.43
2023-03-17T14:33:34.658Z,7.28
2023-03-17T14:36:04.268Z,5.95
2023-03-17T14:38:36.318Z,6.03
2023-03-17T14:41:16.538Z,6.07
2023-03-17T14:43:44.356Z,7.18
2023-03-17T14:46:24.497Z,9.13
2023-03-17T14:48:58.730Z,7.47
2023-03-17T14:51:40.639Z,5.50
2023-03-17T14:54:14.953Z,5.18
2023-03-17T14:56:46.448Z,5.78
2023-03-17T14:59:29.999Z,13.63
2023-03-17T15:01:59.800Z,7.30
2023-03-17T15:04:33.594Z,8.05
2023-03-17T15:07:04.045Z,4.53
2023-03-17T15:09:41.594Z,2.38
2023-03-17T15:12:23.250Z,5.47
2023-03-17T15:15:06.288Z,3.65
2023-03-17T15:17:37.295Z,4.40
2023-03-17T15:20:16.860Z,5.70
2023-03-17T15:25:34.099Z,7.32
2023-03-17T15:28:01.427Z,3.33
2023-03-17T15:30:37.412Z,3.75
2023-03-17T15:33:18.023Z,14.07
2023-03-17T15:35:45.468Z,8.43
2023-03-17T15:38:13.013Z,6.32
2023-03-17T15:40:40.252Z,5.57
2023-03-17T15:43:07.073Z,2.72
2023-03-17T15:45:34.129Z,4.43
2023-03-17T15:48:01.251Z,7.45
2023-03-17T15:50:33.237Z,2.35
2023-03-17T15:53:00.556Z,3.92
2023-03-17T15:55:31.290Z,4.03
2023-03-17T15:57:58.904Z,5.20
2023-03-17T16:00:29.501Z,5.15
2023-03-17T16:03:02.654Z,6.43
2023-03-17T16:05:33.548Z,5.18
2023-03-17T16:08:02.296Z,11.45
2023-03-17T16:10:31.773Z,3.75
2023-03-17T16:13:00.381Z,3.55
2023-03-17T16:15:32.778Z,8.43
2023-03-17T16:18:04.094Z,6.28
2023-03-17T16:20:38.435Z,7.28
2023-03-17T16:23:16.033Z,8.15
2023-03-17T16:25:43.720Z,4.22
2023-03-17T16:28:21.182Z,4.95
2023-03-17T16:30:49.628Z,6.15
2023-03-17T16:33:24.314Z,5.45
2023-03-17T16:35:53.758Z,4.72
2023-03-17T16:38:23.431Z,6.65
2023-03-17T16:43:29.035Z,7.15
2023-03-17T16:45:58.416Z,13.77
2023-03-17T16:48:27.011Z,12.25
2023-03-17T16:50:54.457Z,14.25
2023-03-17T16:53:23.072Z,12.48
2023-03-17T16:55:51.720Z,11.75
2023-03-17T16:58:40.165Z,10.45
2023-03-17T17:01:21.646Z,10.68
2023-03-17T17:03:49.522Z,10.85
2023-03-17T17:06:18.373Z,5.50
2023-03-17T17:08:46.470Z,6.85
2023-03-17T17:11:14.784Z,6.38
2023-03-17T17:13:43.277Z,10.02
2023-03-17T17:16:34.671Z,5.00
2023-03-17T17:19:03.637Z,8.57
2023-03-17T17:21:31.981Z,9.67
2023-03-17T17:24:00.278Z,9.90
2023-03-17T17:26:28.158Z,11.68
2023-03-17T17:28:55.240Z,9.73
2023-03-17T17:31:22.300Z,12.20
2023-03-17T17:33:50.114Z,12.45
2023-03-17T17:36:18.678Z,7.28
2023-03-17T17:38:45.761Z,12.70
2023-03-17T17:41:13.623Z,5.40
2023-03-17T17:43:40.839Z,6.40
2023-03-17T17:46:13.042Z,9.50
2023-03-17T17:48:40.370Z,9.32
2023-03-17T17:51:07.252Z,8.48
2023-03-17T17:53:34.607Z,6.32
2023-03-17T17:56:01.854Z,10.05
2023-03-17T17:58:29.120Z,11.65
2023-03-17T18:00:57.207Z,13.05
2023-03-17T18:03:25.560Z,8.48
2023-03-17T18:05:57.016Z,6.82
2023-03-17T18:08:24.993Z,9.18
2023-03-17T18:10:52.507Z,14.48
2023-03-17T18:13:20.554Z,8.85
2023-03-17T18:15:47.678Z,12.68
2023-03-17T18:18:14.725Z,10.00
2023-03-17T18:20:43.771Z,9.15
2023-03-17T18:23:17.336Z,7.82
2023-03-17T18:25:44.390Z,16.70
2023-03-17T18:28:14.251Z,10.43
2023-03-17T18:30:41.500Z,9.07
2023-03-17T18:33:14.810Z,18.77
2023-03-17T18:35:43.475Z,12.05
2023-03-17T18:38:10.334Z,9.13
2023-03-17T18:40:37.584Z,12.77
2023-03-17T18:43:06.021Z,8.02
2023-03-17T18:45:34.003Z,16.77
2023-03-17T18:48:00.947Z,10.10
2023-03-17T18:50:27.923Z,11.20
2023-03-17T18:52:56.530Z,9.32
2023-03-17T18:55:23.404Z,11.82
2023-03-17T18:57:50.437Z,12.73
2023-03-17T19:00:18.603Z,9.43
2023-03-17T19:02:46.304Z,13.93
2023-03-17T19:05:14.303Z,11.43
2023-03-17T19:07:42.408Z,9.07
2023-03-17T19:10:10.901Z,11.13
2023-03-17T19:12:38.287Z,16.17
2023-03-17T19:15:06.394Z,9.77
2023-03-17T19:17:33.715Z,8.40
2023-03-17T19:20:01.083Z,9.25
2023-03-17T19:22:28.237Z,7.70
2023-03-17T19:24:56.024Z,7.80
2023-03-17T19:27:23.145Z,10.77
2023-03-17T19:29:50.274Z,8.95
2023-03-17T19:32:18.558Z,11.05
2023-03-17T19:34:47.616Z,11.88
2023-03-17T19:37:15.088Z,11.07
2023-03-17T19:39:44.831Z,6.75
2023-03-17T19:44:40.054Z,11.95
2023-03-17T19:47:08.457Z,11.02
2023-03-17T19:49:37.584Z,11.13
2023-03-17T19:52:06.321Z,18.70
2023-03-17T19:54:33.619Z,13.95
2023-03-17T19:57:00.523Z,11.88
2023-03-17T19:59:27.255Z,11.70
2023-03-17T20:01:54.126Z,13.52
2023-03-17T20:04:22.989Z,17.10
2023-03-17T20:06:55.617Z,13.50
2023-03-17T20:09:25.358Z,8.90
2023-03-17T20:11:53.731Z,13.52
2023-03-17T20:14:21.637Z,18.13
2023-03-17T20:16:49.240Z,8.85
2023-03-17T20:19:16.429Z,14.88
2023-03-17T20:21:43.618Z,21.33
2023-03-17T20:24:12.749Z,15.20
2023-03-17T20:26:40.933Z,10.48
2023-03-17T20:29:08.431Z,17.85
2023-03-17T20:31:37.642Z,14.55
2023-03-17T20:34:05.037Z,12.93
2023-03-17T20:36:32.761Z,9.75
2023-03-17T20:39:00.892Z,9.75
2023-03-17T20:41:30.054Z,13.63
2023-03-17T20:43:58.048Z,11.40
2023-03-17T20:46:26.237Z,10.25
2023-03-17T20:48:58.747Z,15.70
2023-03-17T20:51:26.778Z,10.48
2023-03-17T20:53:55.061Z,6.50
2023-03-17T20:56:24.129Z,8.98
2023-03-17T20:58:53.225Z,10.85
2023-03-17T21:01:22.305Z,9.05
2023-03-17T21:03:50.331Z,18.35
2023-03-17T21:06:18.659Z,19.13
2023-03-17T21:08:46.770Z,13.40
2023-03-17T21:11:17.277Z,8.85
2023-03-17T21:13:46.691Z,16.70
2023-03-17T21:16:23.730Z,11.32
2023-03-17T21:18:51.485Z,15.88
2023-03-17T21:21:19.201Z,16.42
2023-03-17T21:23:46.231Z,11.85
2023-03-17T21:26:14.624Z,17.23
2023-03-17T21:28:42.531Z,14.73
2023-03-17T21:31:10.735Z,10.77
2023-03-17T21:33:38.867Z,13.25
2023-03-17T21:36:06.657Z,10.60
2023-03-17T21:38:33.912Z,15.45
2023-03-17T21:41:21.179Z,19.23
2023-03-17T21:43:49.699Z,15.80
2023-03-17T21:46:16.747Z,11.13
2023-03-17T21:48:44.098Z,15.07
2023-03-17T21:51:12.907Z,9.10
2023-03-17T21:53:39.784Z,17.65
2023-03-17T21:56:06.903Z,14.85
2023-03-17T21:58:34.731Z,17.02
2023-03-17T22:01:01.543Z,10.15
2023-03-17T22:03:29.190Z,13.85
2023-03-17T22:05:56.654Z,13.93
2023-03-17T22:08:25.332Z,12.07
2023-03-17T22:10:52.713Z,14.57
2023-03-17T22:13:19.772Z,11.82
2023-03-17T22:15:47.535Z,9.55
2023-03-17T22:18:14.243Z,17.00
2023-03-17T22:20:42.174Z,15.85
2023-03-17T22:23:09.212Z,15.05
2023-03-17T22:25:37.099Z,14.27
2023-03-17T22:28:04.490Z,15.25
2023-03-17T22:30:31.871Z,11.68
2023-03-17T22:32:59.105Z,17.75
2023-03-17T22:35:27.221Z,10.20
2023-03-17T22:37:54.339Z,15.32
2023-03-17T22:40:21.423Z,12.18
2023-03-17T22:42:48.493Z,10.77
2023-03-17T22:45:16.079Z,12.05
2023-03-17T22:47:43.061Z,10.02
2023-03-17T22:50:10.461Z,14.68
2023-03-17T22:52:38.182Z,12.25
2023-03-17T22:55:06.547Z,13.55
2023-03-17T22:57:34.562Z,13.45
2023-03-17T23:00:01.541Z,9.57
2023-03-17T23:02:28.514Z,11.77
2023-03-17T23:04:55.544Z,11.80
2023-03-17T23:07:22.822Z,12.02
2023-03-17T23:09:49.641Z,14.82
2023-03-17T23:12:17.517Z,12.50
2023-03-17T23:14:44.628Z,10.63
2023-03-17T23:17:11.661Z,12.23
2023-03-17T23:19:39.840Z,9.07
2023-03-17T23:22:07.101Z,16.00
2023-03-17T23:24:34.039Z,14.10
2023-03-17T23:27:01.712Z,12.43
2023-03-17T23:29:28.468Z,13.25
2023-03-17T23:31:55.644Z,17.33
2023-03-17T23:34:22.621Z,15.77
2023-03-17T23:36:49.663Z,14.90
2023-03-17T23:39:16.767Z,15.27
2023-03-17T23:41:45.007Z,17.63
2023-03-17T23:44:12.151Z,20.08
2023-03-17T23:46:39.084Z,17.63
2023-03-17T23:49:09.604Z,16.27
2023-03-17T23:51:36.424Z,17.75
2023-03-17T23:54:04.966Z,15.73
2023-03-17T23:56:33.446Z,18.98
2023-03-17T23:59:01.607Z,14.10
